createdAt,value
2022-07-30T00:00:40.910Z,25.90
2022-07-30T00:03:09.223Z,25.60
2022-07-30T00:05:37.689Z,25.50
2022-07-30T00:08:06.193Z,25.50
2022-07-30T00:10:35.982Z,25.30
2022-07-30T00:13:04.312Z,25.10
2022-07-30T00:15:32.857Z,25.00
2022-07-30T00:18:01.498Z,25.00
2022-07-30T00:20:30.344Z,24.90
2022-07-30T00:23:03.734Z,25.10
2022-07-30T00:25:32.239Z,25.10
2022-07-30T00:28:02.017Z,25.00
2022-07-30T00:30:30.496Z,24.80
2022-07-30T00:32:58.918Z,24.70
2022-07-30T00:35:27.760Z,24.80
2022-07-30T00:37:56.432Z,24.80
2022-07-30T00:40:24.957Z,24.80
2022-07-30T00:42:53.323Z,24.90
2022-07-30T00:45:23.349Z,25.10
2022-07-30T00:47:51.757Z,25.40
2022-07-30T00:50:20.078Z,25.50
2022-07-30T00:52:50.213Z,25.50
2022-07-30T00:55:18.576Z,25.70
2022-07-30T00:57:46.920Z,25.70
2022-07-30T01:00:17.683Z,25.70
2022-07-30T01:02:47.652Z,25.50
2022-07-30T01:05:16.143Z,25.50
2022-07-30T01:07:45.070Z,25.60
2022-07-30T01:10:15.496Z,25.70
2022-07-30T01:12:46.830Z,25.70
2022-07-30T01:15:16.425Z,25.80
2022-07-30T01:17:49.137Z,25.70
2022-07-30T01:20:27.065Z,25.60
2022-07-30T01:23:02.838Z,25.50
2022-07-30T01:25:49.913Z,25.60
2022-07-30T01:28:22.290Z,25.50
2022-07-30T01:30:51.890Z,25.60
2022-07-30T01:33:23.007Z,25.60
2022-07-30T01:35:52.645Z,25.40
2022-07-30T01:38:23.883Z,25.40
2022-07-30T01:40:55.990Z,25.20
2022-07-30T01:43:25.748Z,25.20
2022-07-30T01:45:55.007Z,25.20
2022-07-30T01:48:25.827Z,25.30
2022-07-30T01:50:57.011Z,25.30
2022-07-30T01:53:28.140Z,25.30
2022-07-30T01:55:59.954Z,25.40
2022-07-30T01:58:30.617Z,25.40
2022-07-30T02:00:59.425Z,25.50
2022-07-30T02:03:29.672Z,25.50
2022-07-30T02:06:01.331Z,25.40
2022-07-30T02:08:39.190Z,25.50
2022-07-30T02:11:11.229Z,25.40
2022-07-30T02:13:45.730Z,25.50
2022-07-30T02:16:19.727Z,25.20
2022-07-30T02:18:58.609Z,25.00
2022-07-30T02:21:36.446Z,24.80
2022-07-30T02:24:08.990Z,25.00
2022-07-30T02:26:40.623Z,25.20
2022-07-30T02:29:11.630Z,25.00
2022-07-30T02:31:42.025Z,25.30
2022-07-30T02:34:12.280Z,25.30
2022-07-30T02:36:43.239Z,25.40
2022-07-30T02:39:14.764Z,25.20
2022-07-30T02:41:49.642Z,25.20
2022-07-30T02:44:21.441Z,25.30
2022-07-30T02:46:51.245Z,25.20
2022-07-30T02:49:22.465Z,25.10
2022-07-30T02:54:31.947Z,25.20
2022-07-30T02:57:03.358Z,25.30
2022-07-30T02:59:32.934Z,25.40
2022-07-30T03:02:04.746Z,25.30
2022-07-30T03:04:34.098Z,25.30
2022-07-30T03:07:07.907Z,25.20
2022-07-30T03:09:50.917Z,25.00
2022-07-30T03:12:23.950Z,24.80
2022-07-30T03:14:52.894Z,24.70
2022-07-30T03:17:23.637Z,24.50
2022-07-30T03:19:54.781Z,24.50
2022-07-30T03:22:28.938Z,24.60
2022-07-30T03:25:01.331Z,24.50
2022-07-30T03:27:32.175Z,24.20
2022-07-30T03:30:03.154Z,24.00
2022-07-30T03:32:32.092Z,23.30
2022-07-30T03:35:05.921Z,23.10
2022-07-30T03:37:37.178Z,23.00
2022-07-30T03:40:07.258Z,22.80
2022-07-30T03:42:37.769Z,23.10
2022-07-30T03:45:08.643Z,23.00
2022-07-30T03:47:40.545Z,22.90
2022-07-30T03:50:09.629Z,22.50
2022-07-30T03:52:41.019Z,22.50
2022-07-30T03:55:11.889Z,22.60
2022-07-30T03:57:41.661Z,22.30
2022-07-30T04:00:15.080Z,22.40
2022-07-30T04:02:43.987Z,22.40
2022-07-30T04:05:14.432Z,22.30
2022-07-30T04:07:45.214Z,22.40
2022-07-30T04:10:14.488Z,22.50
2022-07-30T04:12:44.614Z,22.50
2022-07-30T04:16:37.623Z,22.60
2022-07-30T04:18:05.759Z,22.60
2022-07-30T04:20:40.144Z,22.70
2022-07-30T04:23:10.066Z,22.70
2022-07-30T04:25:39.665Z,22.60
2022-07-30T04:28:11.905Z,22.70
2022-07-30T04:30:41.767Z,22.80
2022-07-30T04:33:10.173Z,22.90
2022-07-30T04:35:51.158Z,23.00
2022-07-30T04:38:21.077Z,23.10
2022-07-30T04:40:49.944Z,23.50
2022-07-30T04:43:19.681Z,23.70
2022-07-30T04:45:48.051Z,23.70
2022-07-30T04:48:16.358Z,23.70
2022-07-30T04:50:48.018Z,23.70
2022-07-30T04:53:17.089Z,23.60
2022-07-30T04:55:48.445Z,23.70
2022-07-30T04:58:21.945Z,24.10
2022-07-30T05:00:52.998Z,23.80
2022-07-30T05:03:24.566Z,23.30
2022-07-30T05:05:57.255Z,23.40
2022-07-30T05:08:26.389Z,23.90
2022-07-30T05:10:54.733Z,24.10
2022-07-30T05:13:27.513Z,24.40
2022-07-30T05:16:03.002Z,24.50
2022-07-30T05:18:31.398Z,24.50
2022-07-30T05:20:59.764Z,24.50
2022-07-30T05:23:28.109Z,24.60
2022-07-30T05:25:56.454Z,24.80
2022-07-30T05:28:26.765Z,24.80
2022-07-30T05:30:56.132Z,24.80
2022-07-30T05:33:42.525Z,24.60
2022-07-30T05:36:11.255Z,24.50
2022-07-30T05:38:39.617Z,24.20
2022-07-30T05:41:30.602Z,24.00
2022-07-30T05:43:58.076Z,23.70
2022-07-30T05:46:27.202Z,24.00
2022-07-30T05:48:55.676Z,24.40
2022-07-30T05:51:24.098Z,24.70
2022-07-30T05:53:52.497Z,24.90
2022-07-30T05:56:20.834Z,25.10
2022-07-30T05:58:49.204Z,25.20
2022-07-30T06:01:18.970Z,25.30
2022-07-30T06:03:47.266Z,25.30
2022-07-30T06:06:19.706Z,25.40
2022-07-30T06:08:51.329Z,25.50
2022-07-30T06:11:19.815Z,25.60
2022-07-30T06:13:48.152Z,25.70
2022-07-30T06:16:16.662Z,25.70
2022-07-30T06:18:46.441Z,25.60
2022-07-30T06:21:14.777Z,25.10
2022-07-30T06:23:43.101Z,25.10
2022-07-30T06:26:11.447Z,25.50
2022-07-30T06:28:39.929Z,25.90
2022-07-30T06:31:08.604Z,26.20
2022-07-30T06:33:37.006Z,26.20
2022-07-30T06:36:07.256Z,26.30
2022-07-30T06:38:35.629Z,26.40
2022-07-30T06:41:04.480Z,26.50
2022-07-30T06:43:33.269Z,25.70
2022-07-30T06:46:01.783Z,25.50
2022-07-30T06:48:32.690Z,25.20
2022-07-30T06:51:01.062Z,24.90
2022-07-30T06:53:30.881Z,24.90
2022-07-30T06:56:00.595Z,25.20
2022-07-30T06:58:29.319Z,25.20
2022-07-30T07:00:57.742Z,25.20
2022-07-30T07:03:39.804Z,25.50
2022-07-30T07:06:09.010Z,25.30
2022-07-30T07:08:39.374Z,25.40
2022-07-30T07:11:08.039Z,25.50
2022-07-30T07:13:36.359Z,25.50
2022-07-30T07:16:05.002Z,25.40
2022-07-30T07:18:33.319Z,25.40
2022-07-30T07:21:01.709Z,25.50
2022-07-30T07:23:41.474Z,25.70
2022-07-30T07:26:12.809Z,25.60
2022-07-30T07:28:41.383Z,25.40
2022-07-30T07:31:10.515Z,25.10
2022-07-30T07:33:40.604Z,25.10
2022-07-30T07:36:09.045Z,25.00
2022-07-30T07:38:37.917Z,25.20
2022-07-30T07:41:06.632Z,25.50
2022-07-30T07:43:36.377Z,25.30
2022-07-30T07:46:04.782Z,25.30
2022-07-30T07:48:33.178Z,25.60
2022-07-30T07:51:01.863Z,25.90
2022-07-30T07:53:30.249Z,26.10
2022-07-30T07:55:59.713Z,26.20
2022-07-30T07:58:29.442Z,26.40
2022-07-30T08:01:00.731Z,26.50
2022-07-30T08:03:29.148Z,26.60
2022-07-30T08:06:05.893Z,26.70
2022-07-30T08:08:37.150Z,26.80
2022-07-30T08:11:07.124Z,27.00
2022-07-30T08:13:51.663Z,27.30
2022-07-30T08:16:23.214Z,27.40
2022-07-30T08:18:51.628Z,27.20
2022-07-30T08:21:19.971Z,27.30
2022-07-30T08:23:48.289Z,27.40
2022-07-30T08:26:17.176Z,27.40
2022-07-30T08:28:45.849Z,27.40
2022-07-30T08:31:14.420Z,27.40
2022-07-30T08:33:44.124Z,27.50
2022-07-30T08:36:12.453Z,27.50
2022-07-30T08:38:40.814Z,27.60
2022-07-30T08:41:09.451Z,27.60
2022-07-30T08:43:38.606Z,27.60
2022-07-30T08:46:11.423Z,27.90
2022-07-30T08:48:40.393Z,28.20
2022-07-30T08:51:12.422Z,28.40
2022-07-30T08:53:42.017Z,28.50
2022-07-30T08:56:11.155Z,28.50
2022-07-30T08:58:39.664Z,28.50
2022-07-30T09:01:16.545Z,28.20
2022-07-30T09:03:45.026Z,28.20
2022-07-30T09:06:16.385Z,28.40
2022-07-30T09:08:44.786Z,28.70
2022-07-30T09:11:13.341Z,28.50
2022-07-30T09:13:43.157Z,28.60
2022-07-30T09:16:22.670Z,28.90
2022-07-30T09:18:51.989Z,28.90
2022-07-30T09:21:24.113Z,29.00
2022-07-30T09:24:00.803Z,29.00
2022-07-30T09:26:29.498Z,28.80
2022-07-30T09:29:15.923Z,28.70
2022-07-30T09:31:55.918Z,28.40
2022-07-30T09:34:28.832Z,28.60
2022-07-30T09:37:00.771Z,28.90
2022-07-30T09:39:36.773Z,29.10
2022-07-30T09:42:17.599Z,29.10
2022-07-30T09:44:46.550Z,29.30
2022-07-30T09:47:32.518Z,29.40
2022-07-30T09:50:11.780Z,29.50
2022-07-30T09:52:44.308Z,29.50
2022-07-30T09:55:31.517Z,29.60
2022-07-30T09:58:03.377Z,29.30
2022-07-30T10:00:33.581Z,29.20
2022-07-30T10:03:12.415Z,29.30
2022-07-30T10:05:56.486Z,29.40
2022-07-30T10:08:40.984Z,29.50
2022-07-30T10:11:14.505Z,29.60
2022-07-30T10:13:45.686Z,29.60
2022-07-30T10:16:14.345Z,29.40
2022-07-30T10:18:44.977Z,29.30
2022-07-30T10:21:16.828Z,29.00
2022-07-30T10:23:50.587Z,28.80
2022-07-30T10:26:20.001Z,29.00
2022-07-30T10:28:48.705Z,29.40
2022-07-30T10:31:47.060Z,29.70
2022-07-30T10:34:06.321Z,29.70
2022-07-30T10:36:36.854Z,29.70
2022-07-30T10:39:08.541Z,29.60
2022-07-30T10:41:48.015Z,29.60
2022-07-30T10:44:33.413Z,29.90
2022-07-30T10:47:07.156Z,30.30
2022-07-30T10:49:41.167Z,30.40
2022-07-30T10:52:12.238Z,30.40
2022-07-30T10:54:45.109Z,30.40
2022-07-30T10:57:22.935Z,30.50
2022-07-30T11:00:15.238Z,30.70
2022-07-30T11:03:15.200Z,30.50
2022-07-30T11:08:42.755Z,30.50
2022-07-30T11:12:00.961Z,30.30
2022-07-30T11:14:58.434Z,30.50
2022-07-30T11:18:00.120Z,30.70
2022-07-30T11:20:28.992Z,30.60
2022-07-30T11:23:13.953Z,30.80
2022-07-30T11:25:51.000Z,31.00
2022-07-30T11:28:43.020Z,30.80
2022-07-30T11:31:54.786Z,30.90
2022-07-30T11:34:30.718Z,30.80
2022-07-30T11:37:17.773Z,30.70
2022-07-30T11:40:09.701Z,30.80
2022-07-30T11:42:40.165Z,30.90
2022-07-30T11:45:33.769Z,31.00
2022-07-30T11:48:02.397Z,31.20
2022-07-30T11:50:35.524Z,31.00
2022-07-30T11:53:06.771Z,31.10
2022-07-30T11:55:37.261Z,31.10
2022-07-30T11:58:08.452Z,31.00
2022-07-30T12:00:41.391Z,31.10
2022-07-30T12:03:14.279Z,31.20
2022-07-30T12:05:44.071Z,31.30
2022-07-30T12:08:35.442Z,31.20
2022-07-30T12:11:02.882Z,30.90
2022-07-30T12:13:44.527Z,31.10
2022-07-30T12:16:18.025Z,31.20
2022-07-30T12:18:48.662Z,31.30
2022-07-30T12:21:17.702Z,31.20
2022-07-30T12:23:57.155Z,31.40
2022-07-30T12:26:27.587Z,31.50
2022-07-30T12:28:57.334Z,31.40
2022-07-30T12:31:27.564Z,31.60
2022-07-30T12:33:58.902Z,31.60
2022-07-30T12:36:31.064Z,31.60
2022-07-30T12:39:00.553Z,31.30
2022-07-30T12:41:45.211Z,31.20
2022-07-30T12:44:37.483Z,31.50
2022-07-30T12:47:18.935Z,31.50
2022-07-30T12:49:49.898Z,31.50
2022-07-30T12:52:27.637Z,31.20
2022-07-30T12:55:05.126Z,31.00
2022-07-30T12:57:56.111Z,30.90
2022-07-30T13:00:26.060Z,31.00
2022-07-30T13:02:56.689Z,30.90
2022-07-30T13:05:49.888Z,31.00
2022-07-30T13:08:18.882Z,31.30
2022-07-30T13:10:59.352Z,31.40
2022-07-30T13:13:28.131Z,31.50
2022-07-30T13:16:01.633Z,31.50
2022-07-30T13:18:32.932Z,31.60
2022-07-30T13:21:02.332Z,31.70
2022-07-30T13:23:31.006Z,31.80
2022-07-30T13:25:59.872Z,31.90
2022-07-30T13:28:28.570Z,31.80
2022-07-30T13:30:58.048Z,31.80
2022-07-30T13:33:26.550Z,31.90
2022-07-30T13:35:56.622Z,32.00
2022-07-30T13:38:24.928Z,31.90
2022-07-30T13:40:56.144Z,31.90
2022-07-30T13:43:27.629Z,32.00
2022-07-30T13:45:59.935Z,31.90
2022-07-30T13:48:28.581Z,31.80
2022-07-30T13:50:58.304Z,31.80
2022-07-30T13:53:26.829Z,31.90
2022-07-30T13:55:55.380Z,31.90
2022-07-30T13:58:23.866Z,31.80
2022-07-30T14:00:52.281Z,31.80
2022-07-30T14:03:21.048Z,31.80
2022-07-30T14:05:49.583Z,31.80
2022-07-30T14:08:19.284Z,31.90
2022-07-30T14:10:48.157Z,31.90
2022-07-30T14:13:20.902Z,31.80
2022-07-30T14:15:50.008Z,31.70
2022-07-30T14:18:18.385Z,31.80
2022-07-30T14:20:48.898Z,31.80
2022-07-30T14:23:18.933Z,31.70
2022-07-30T14:25:47.492Z,32.00
2022-07-30T14:28:16.373Z,32.00
2022-07-30T14:30:45.272Z,31.90
2022-07-30T14:33:13.698Z,32.00
2022-07-30T14:35:42.001Z,31.80
2022-07-30T14:38:10.373Z,31.90
2022-07-30T14:40:40.135Z,32.00
2022-07-30T14:43:08.429Z,32.10
2022-07-30T14:45:38.587Z,32.10
2022-07-30T14:48:07.421Z,32.00
2022-07-30T14:50:46.686Z,32.10
2022-07-30T14:53:24.240Z,31.90
2022-07-30T14:55:53.950Z,31.90
2022-07-30T14:58:27.332Z,32.00
2022-07-30T15:00:56.199Z,32.10
2022-07-30T15:03:25.870Z,32.10
2022-07-30T15:05:54.608Z,32.10
2022-07-30T15:08:23.254Z,32.00
2022-07-30T15:10:52.559Z,32.00
2022-07-30T15:13:25.919Z,31.90
2022-07-30T15:15:55.713Z,32.00
2022-07-30T15:18:27.684Z,32.10
2022-07-30T15:20:56.420Z,32.10
2022-07-30T15:23:24.765Z,32.00
2022-07-30T15:25:53.097Z,32.00
2022-07-30T15:28:22.163Z,31.90
2022-07-30T15:30:51.945Z,32.00
2022-07-30T15:33:20.782Z,31.90
2022-07-30T15:35:49.237Z,31.70
2022-07-30T15:38:17.758Z,31.60
2022-07-30T15:40:46.254Z,31.50
2022-07-30T15:43:15.800Z,31.30
2022-07-30T15:45:52.787Z,31.10
2022-07-30T15:48:27.406Z,30.70
2022-07-30T15:51:00.868Z,30.60
2022-07-30T15:53:29.875Z,30.60
2022-07-30T15:55:58.637Z,30.60
2022-07-30T15:58:27.039Z,30.40
2022-07-30T16:00:55.495Z,30.10
2022-07-30T16:03:25.289Z,29.70
2022-07-30T16:05:53.669Z,29.50
2022-07-30T16:08:22.107Z,29.20
2022-07-30T16:10:52.006Z,29.00
2022-07-30T16:13:20.463Z,29.00
2022-07-30T16:15:48.773Z,28.90
2022-07-30T16:18:17.119Z,29.00
2022-07-30T16:20:46.861Z,29.10
2022-07-30T16:23:20.823Z,29.10
2022-07-30T16:25:49.710Z,29.20
2022-07-30T16:28:18.071Z,29.20
2022-07-30T16:30:50.669Z,29.20
2022-07-30T16:33:20.277Z,29.00
2022-07-30T16:35:51.058Z,28.30
2022-07-30T16:38:20.347Z,27.80
2022-07-30T16:40:48.802Z,27.60
2022-07-30T16:43:19.922Z,27.50
2022-07-30T16:45:48.741Z,27.40
2022-07-30T16:48:17.065Z,27.20
2022-07-30T16:50:45.796Z,26.90
2022-07-30T16:53:15.563Z,26.90
2022-07-30T16:55:44.724Z,26.80
2022-07-30T16:58:13.686Z,26.80
2022-07-30T17:00:42.375Z,26.30
2022-07-30T17:03:11.989Z,26.30
2022-07-30T17:05:48.488Z,26.30
2022-07-30T17:08:18.323Z,26.40
2022-07-30T17:10:47.871Z,26.60
2022-07-30T17:13:16.725Z,26.80
2022-07-30T17:15:46.753Z,27.00
2022-07-30T17:18:16.016Z,27.20
2022-07-30T17:20:44.735Z,27.40
2022-07-30T17:23:13.278Z,27.30
2022-07-30T17:25:43.057Z,27.40
2022-07-30T17:28:11.379Z,27.50
2022-07-30T17:30:40.084Z,27.50
2022-07-30T17:33:08.608Z,27.60
2022-07-30T17:35:37.789Z,27.70
2022-07-30T17:38:07.371Z,27.90
2022-07-30T17:40:35.772Z,27.90
2022-07-30T17:43:06.112Z,27.90
2022-07-30T17:45:36.820Z,27.90
2022-07-30T17:48:06.191Z,27.70
2022-07-30T17:50:35.741Z,27.60
2022-07-30T17:53:05.779Z,27.50
2022-07-30T17:55:35.181Z,27.30
2022-07-30T17:58:06.035Z,27.30
2022-07-30T18:00:35.574Z,27.20
2022-07-30T18:03:04.105Z,27.40
2022-07-30T18:05:32.525Z,27.50
2022-07-30T18:08:00.872Z,27.60
2022-07-30T18:10:29.534Z,27.40
2022-07-30T18:12:57.854Z,27.30
2022-07-30T18:15:28.002Z,27.30
2022-07-30T18:17:56.304Z,27.30
2022-07-30T18:20:24.787Z,27.00
2022-07-30T18:22:53.154Z,26.90
2022-07-30T18:25:23.282Z,26.50
2022-07-30T18:27:52.361Z,26.60
2022-07-30T18:30:21.977Z,26.70
2022-07-30T18:32:51.832Z,26.70
2022-07-30T18:35:20.240Z,26.70
2022-07-30T18:37:48.820Z,26.70
2022-07-30T18:40:23.478Z,26.60
2022-07-30T18:42:52.226Z,26.30
2022-07-30T18:45:20.705Z,25.90
2022-07-30T18:47:49.240Z,25.70
2022-07-30T18:50:19.616Z,25.70
2022-07-30T18:52:48.705Z,25.50
2022-07-30T18:55:18.030Z,25.60
2022-07-30T18:57:46.429Z,25.20
2022-07-30T19:00:34.743Z,25.30
2022-07-30T19:03:04.576Z,25.60
2022-07-30T19:05:34.414Z,25.70
2022-07-30T19:08:02.701Z,25.30
2022-07-30T19:10:31.120Z,25.40
2022-07-30T19:12:59.716Z,25.70
2022-07-30T19:15:29.487Z,25.40
2022-07-30T19:17:58.302Z,25.20
2022-07-30T19:20:27.502Z,25.10
2022-07-30T19:23:03.297Z,25.20
2022-07-30T19:25:32.615Z,25.00
2022-07-30T19:28:01.480Z,24.90
2022-07-30T19:30:30.045Z,24.80
2022-07-30T19:33:04.279Z,24.80
2022-07-30T19:35:32.618Z,25.00
2022-07-30T19:38:02.480Z,25.50
2022-07-30T19:40:31.007Z,25.80
2022-07-30T19:43:09.415Z,25.60
2022-07-30T19:45:47.479Z,25.30
2022-07-30T19:48:29.119Z,25.30
2022-07-30T19:50:59.084Z,25.30
2022-07-30T19:53:31.147Z,25.40
2022-07-30T19:56:01.776Z,25.20
2022-07-30T19:58:31.905Z,25.50
2022-07-30T20:01:01.307Z,25.50
2022-07-30T20:03:31.587Z,25.80
2022-07-30T20:06:00.920Z,25.70
2022-07-30T20:08:30.732Z,25.80
2022-07-30T20:11:01.481Z,25.80
2022-07-30T20:13:44.723Z,25.90
2022-07-30T20:16:14.954Z,25.80
2022-07-30T20:18:44.466Z,25.90
2022-07-30T20:21:15.829Z,26.00
2022-07-30T20:23:46.477Z,26.10
2022-07-30T20:26:16.037Z,26.30
2022-07-30T20:31:36.526Z,26.50
2022-07-30T20:34:06.371Z,26.10
2022-07-30T20:36:44.782Z,26.20
2022-07-30T20:39:18.176Z,26.30
2022-07-30T20:41:47.074Z,26.30
2022-07-30T20:44:23.699Z,26.30
2022-07-30T20:46:52.774Z,26.30
2022-07-30T20:49:28.894Z,26.00
2022-07-30T20:52:04.019Z,25.70
2022-07-30T20:54:34.152Z,25.70
2022-07-30T20:57:04.019Z,25.80
2022-07-30T20:59:35.603Z,25.80
2022-07-30T21:02:04.306Z,25.60
2022-07-30T21:04:33.944Z,25.60
2022-07-30T21:07:02.499Z,25.60
2022-07-30T21:09:49.854Z,25.50
2022-07-30T21:12:32.573Z,25.50
2022-07-30T21:15:01.598Z,25.60
2022-07-30T21:17:30.117Z,25.60
2022-07-30T21:19:58.634Z,25.90
2022-07-30T21:22:26.981Z,26.00
2022-07-30T21:24:55.308Z,25.80
2022-07-30T21:27:30.003Z,25.60
2022-07-30T21:29:58.761Z,25.80
2022-07-30T21:32:28.307Z,25.90
2022-07-30T21:34:56.652Z,26.10
2022-07-30T21:37:27.033Z,26.20
2022-07-30T21:40:05.792Z,26.30
2022-07-30T21:42:35.543Z,26.40
2022-07-30T21:45:04.039Z,26.40
2022-07-30T21:47:33.413Z,26.30
2022-07-30T21:50:01.718Z,26.20
2022-07-30T21:52:31.519Z,26.10
2022-07-30T21:55:04.344Z,26.10
2022-07-30T21:57:34.601Z,25.60
2022-07-30T22:00:09.158Z,25.50
2022-07-30T22:02:39.068Z,25.60
2022-07-30T22:05:22.076Z,25.40
2022-07-30T22:07:51.965Z,25.50
2022-07-30T22:10:21.584Z,25.50
2022-07-30T22:12:51.592Z,25.70
2022-07-30T22:15:20.424Z,25.70
2022-07-30T22:17:58.621Z,25.90
2022-07-30T22:20:32.305Z,25.90
2022-07-30T22:23:02.216Z,25.90
2022-07-30T22:25:41.746Z,26.00
2022-07-30T22:31:12.480Z,26.00
2022-07-30T22:33:44.229Z,26.10
2022-07-30T22:36:12.597Z,26.00
2022-07-30T22:38:43.490Z,26.00
2022-07-30T22:41:28.992Z,26.00
2022-07-30T22:43:57.604Z,26.00
2022-07-30T22:46:31.046Z,26.00
2022-07-30T22:49:00.509Z,26.00
2022-07-30T22:52:03.581Z,25.90
2022-07-30T22:54:17.537Z,25.70
2022-07-30T22:56:47.758Z,25.70
2022-07-30T22:59:16.053Z,25.70
2022-07-30T23:01:59.119Z,25.70
2022-07-30T23:04:27.460Z,25.70
2022-07-30T23:06:57.030Z,25.70
2022-07-30T23:09:28.301Z,25.80
2022-07-30T23:12:13.201Z,25.80
2022-07-30T23:12:19.002Z,26.40
2022-07-30T23:14:43.195Z,25.70
2022-07-30T23:17:12.922Z,25.70
2022-07-30T23:19:41.267Z,25.70
2022-07-30T23:22:10.304Z,25.70
2022-07-30T23:24:38.620Z,25.60
2022-07-30T23:27:07.067Z,25.50
2022-07-30T23:29:35.548Z,25.40
2022-07-30T23:32:03.892Z,25.70
2022-07-30T23:34:33.592Z,25.60
2022-07-30T23:37:05.601Z,25.60
2022-07-30T23:39:34.032Z,25.60
2022-07-30T23:42:02.392Z,25.60
2022-07-30T23:44:34.342Z,25.60
2022-07-30T23:47:05.611Z,25.50
2022-07-30T23:49:35.537Z,25.40
2022-07-30T23:52:04.404Z,25.30
2022-07-30T23:54:32.733Z,25.10
2022-07-30T23:57:01.446Z,25.30
2022-07-30T23:59:40.848Z,25.10
